Selected Aviation Weather Reports

Never base important decisions on this or any weather information obtained from a non-NWS site!

Last update: Sep 18, 2021, 11:56 pm CDT

 

TNC157 Flash Flood Watch  level:  Severe     fromSep 18 2021 9:24 pm -  untilSep 21 2021 12:00 am

Significant threat to life or property - Responsive action SHOULD be taken soon (within next hour)

...FLASH FLOOD WATCH REMAINS IN EFFECT THROUGH MONDAY EVENING... The Flash Flood Watch continues for * Portions of North Mississippi and West Tennessee, including the following areas, in North Mississippi, Alcorn, Benton MS, DeSoto, Marshall, Prentiss, Tate, Tippah, Tishomingo and Tunica. In West Tennessee, Chester, Crockett, Decatur, Fayette, Hardeman, Hardin,

METAR for KATL, KDFW, KEWR, KLAX, KMEM & KORD

METAR is also known as Meteorological Terminal Aviation Routine Weather Report or Meteorological Aerodrome Report.


2021/09/19 03:52 KATL 190352Z 02003KT 10SM FEW110 BKN150 BKN180 BKN250 24/23 A3009 RMK AO2 SLP177 RAE21 P0000 T02440228

KATL, Sep 19, 2021, 03:52Z
Hartsfield-Jackson Atlanta International Airport
Wind: 020° @ 3 kts
Visibility: 10 Statute miles
Clouds: Few @ 11,000 ft
Broken @ 15,000 ft
Broken @ 18,000 ft
Broken @ 25,000 ft
Altimeter: 30.09 in/Hg
Sea Level Pressure: 1017.7 mb
Temperature: 75.92°F (24.4°C)
Dew Point: 73.04°F (22.8°C)
Precipitation, previous hr: None
Additional Remarks: 
Rain ended @ 21 past the hr.

2021/09/19 03:53 KDFW 190353Z 12007KT 10SM CLR 28/19 A2998 RMK AO2 SLP142 T02780194

KDFW, Sep 19, 2021, 03:53Z
Dallas-Ft. Worth International Airport
Wind: 120° @ 7 kts
Visibility: 10 Statute miles
Clouds: Skies Clear
Altimeter: 29.98 in/Hg
Sea Level Pressure: 1014.2 mb
Temperature: 82.04°F (27.8°C)
Dew Point: 66.92°F (19.4°C)

2021/09/19 03:51 KEWR 190351Z 35011KT 10SM FEW050 FEW250 26/17 A3005 RMK AO2 SLP175 T02560172 $

KEWR, Sep 19, 2021, 03:51Z
Newark Liberty International Airport
Wind: 350° @ 11 kts
Visibility: 10 Statute miles
Clouds: Few @ 5,000 ft
Few @ 25,000 ft
Altimeter: 30.05 in/Hg
Sea Level Pressure: 1017.5 mb
Temperature: 78.08°F (25.6°C)
Dew Point: 62.96°F (17.2°C)
Additional Remarks: 
Maintenance Needed on the System.

2021/09/19 03:53 KLAX 190353Z 27011KT 10SM SCT018 17/14 A3000 RMK AO2 SLP159 T01720139

KLAX, Sep 19, 2021, 03:53Z
Los Angeles International Airport
Wind: 270° @ 11 kts
Visibility: 10 Statute miles
Clouds: Scattered @ 1,800 ft
Altimeter: 30.00 in/Hg
Sea Level Pressure: 1015.9 mb
Temperature: 62.96°F (17.2°C)
Dew Point: 57.02°F (13.9°C)

2021/09/19 03:54 KMEM 190354Z 08007KT 10SM FEW065 FEW150 22/21 A3003 RMK AO2 SLP166 T02220211

KMEM, Sep 19, 2021, 03:54Z
Memphis International Airport
Wind: 080° @ 7 kts
Visibility: 10 Statute miles
Clouds: Few @ 6,500 ft
Few @ 15,000 ft
Altimeter: 30.03 in/Hg
Sea Level Pressure: 1016.6 mb
Temperature: 71.96°F (22.2°C)
Dew Point: 69.98°F (21.1°C)

2021/09/19 03:51 KORD 190351Z 06006KT 10SM CLR 19/16 A3014 RMK AO2 SLP204 T01940156 $

KORD, Sep 19, 2021, 03:51Z
Chicago O’Hare International Airport
Wind: 060° @ 6 kts
Visibility: 10 Statute miles
Clouds: Skies Clear
Altimeter: 30.14 in/Hg
Sea Level Pressure: 1020.4 mb
Temperature: 66.92°F (19.4°C)
Dew Point: 60.08°F (15.6°C)
Additional Remarks: 
Maintenance Needed on the System.

Top of page